Terminal Aerodrome Forecast
Issued by NWS

Home | Current Version | Previous Version | Text Only | Print | Product List | Glossary On
Versions: 1 2 3 4 5 6 7 8 9 10 11 12 13 14 15 16 17
439
FTUS41 KBGM 171738
TAFRME
TAF
KRME 171738Z 1718/1818 15004KT P6SM FEW250
     FM180200 11006KT P6SM BKN100
     FM180500 12006KT P6SM -SHRA OVC080
     FM180900 13009KT P6SM -SHRA OVC025
      TEMPO 1810/1814 5SM -SHRA BR OVC015
     FM181500 17010G16KT P6SM -SHRA OVC025=

USA.gov is the U.S. government's official web portal to all federal, state and local government web resources and services.